sensor_id;sensor_type;location;lat;lon;timestamp;pressure;altitude;pressure_sealevel;temperature;humidity
14242;BME280;7205;50.864;12.766;2023-09-19T00:02:27;96931.06;;;18.17;100.00
14242;BME280;7205;50.864;12.766;2023-09-19T00:04:54;96931.88;;;18.18;100.00
14242;BME280;7205;50.864;12.766;2023-09-19T00:07:21;96941.84;;;18.22;100.00
14242;BME280;7205;50.864;12.766;2023-09-19T00:09:48;96935.22;;;18.25;100.00
14242;BME280;7205;50.864;12.766;2023-09-19T00:12:15;96942.50;;;18.29;100.00
14242;BME280;7205;50.864;12.766;2023-09-19T00:14:43;96936.69;;;18.32;100.00
14242;BME280;7205;50.864;12.766;2023-09-19T00:17:10;96938.88;;;18.35;100.00
14242;BME280;7205;50.864;12.766;2023-09-19T00:19:38;96929.81;;;18.36;100.00
14242;BME280;7205;50.864;12.766;2023-09-19T00:22:07;96930.06;;;18.35;100.00
14242;BME280;7205;50.864;12.766;2023-09-19T00:24:34;96936.78;;;18.37;100.00
14242;BME280;7205;50.864;12.766;2023-09-19T00:27:01;96939.44;;;18.37;100.00
14242;BME280;7205;50.864;12.766;2023-09-19T00:29:28;96935.97;;;18.37;100.00
14242;BME280;7205;50.864;12.766;2023-09-19T00:31:57;96934.34;;;18.36;100.00
14242;BME280;7205;50.864;12.766;2023-09-19T00:34:24;96945.28;;;18.34;100.00
14242;BME280;7205;50.864;12.766;2023-09-19T00:36:52;96947.72;;;18.36;100.00
14242;BME280;7205;50.864;12.766;2023-09-19T00:39:20;96943.66;;;18.33;100.00
14242;BME280;7205;50.864;12.766;2023-09-19T00:41:47;96942.84;;;18.33;100.00
14242;BME280;7205;50.864;12.766;2023-09-19T00:44:14;96950.28;;;18.31;100.00
14242;BME280;7205;50.864;12.766;2023-09-19T00:46:43;96943.34;;;18.30;100.00
14242;BME280;7205;50.864;12.766;2023-09-19T00:49:14;96948.94;;;18.28;100.00
14242;BME280;7205;50.864;12.766;2023-09-19T00:51:41;96952.63;;;18.27;100.00
14242;BME280;7205;50.864;12.766;2023-09-19T00:54:15;96947.78;;;18.24;100.00
14242;BME280;7205;50.864;12.766;2023-09-19T00:56:45;96949.63;;;18.24;100.00
14242;BME280;7205;50.864;12.766;2023-09-19T00:59:14;96946.41;;;18.22;100.00
14242;BME280;7205;50.864;12.766;2023-09-19T01:01:42;96951.16;;;18.20;100.00
14242;BME280;7205;50.864;12.766;2023-09-19T01:04:11;96951.66;;;18.17;100.00
14242;BME280;7205;50.864;12.766;2023-09-19T01:06:39;96947.59;;;18.14;100.00
14242;BME280;7205;50.864;12.766;2023-09-19T01:09:06;96948.88;;;18.12;100.00
14242;BME280;7205;50.864;12.766;2023-09-19T01:11:38;96944.59;;;18.11;100.00
14242;BME280;7205;50.864;12.766;2023-09-19T01:14:15;96950.41;;;18.08;100.00
14242;BME280;7205;50.864;12.766;2023-09-19T01:16:53;96961.34;;;18.06;100.00
14242;BME280;7205;50.864;12.766;2023-09-19T01:19:42;96961.00;;;18.03;100.00
14242;BME280;7205;50.864;12.766;2023-09-19T01:22:21;96963.91;;;18.01;100.00
14242;BME280;7205;50.864;12.766;2023-09-19T01:28:14;96973.69;;;17.96;100.00
14242;BME280;7205;50.864;12.766;2023-09-19T01:30:52;96976.13;;;17.97;100.00
14242;BME280;7205;50.864;12.766;2023-09-19T01:33:23;96981.47;;;17.97;100.00
14242;BME280;7205;50.864;12.766;2023-09-19T01:35:51;96980.63;;;17.97;100.00
14242;BME280;7205;50.864;12.766;2023-09-19T01:38:23;96980.63;;;17.97;100.00
14242;BME280;7205;50.864;12.766;2023-09-19T01:40:55;96977.19;;;17.96;100.00
14242;BME280;7205;50.864;12.766;2023-09-19T01:43:29;96973.91;;;17.94;100.00
14242;BME280;7205;50.864;12.766;2023-09-19T01:46:04;96981.34;;;17.92;100.00
14242;BME280;7205;50.864;12.766;2023-09-19T01:48:39;96974.41;;;17.91;100.00
14242;BME280;7205;50.864;12.766;2023-09-19T01:51:09;96969.31;;;17.90;100.00
14242;BME280;7205;50.864;12.766;2023-09-19T01:53:43;96976.50;;;17.89;100.00
14242;BME280;7205;50.864;12.766;2023-09-19T01:56:16;96981.50;;;17.86;100.00
14242;BME280;7205;50.864;12.766;2023-09-19T01:58:50;96977.22;;;17.85;100.00
14242;BME280;7205;50.864;12.766;2023-09-19T02:01:24;96973.97;;;17.83;100.00
14242;BME280;7205;50.864;12.766;2023-09-19T02:03:52;96977.91;;;17.80;100.00
14242;BME280;7205;50.864;12.766;2023-09-19T02:06:19;96979.78;;;17.80;100.00
14242;BME280;7205;50.864;12.766;2023-09-19T02:08:46;96986.97;;;17.79;100.00
14242;BME280;7205;50.864;12.766;2023-09-19T02:11:13;96990.13;;;17.76;100.00
14242;BME280;7205;50.864;12.766;2023-09-19T02:13:41;96993.81;;;17.75;100.00
14242;BME280;7205;50.864;12.766;2023-09-19T02:16:08;96988.38;;;17.70;100.00
14242;BME280;7205;50.864;12.766;2023-09-19T02:18:37;96994.78;;;17.69;100.00
14242;BME280;7205;50.864;12.766;2023-09-19T02:21:05;97000.59;;;17.66;100.00
14242;BME280;7205;50.864;12.766;2023-09-19T02:23:34;96997.59;;;17.63;100.00
14242;BME280;7205;50.864;12.766;2023-09-19T02:26:01;97001.28;;;17.62;100.00
14242;BME280;7205;50.864;12.766;2023-09-19T02:28:29;96992.97;;;17.58;100.00
14242;BME280;7205;50.864;12.766;2023-09-19T02:30:57;96997.94;;;17.55;100.00
14242;BME280;7205;50.864;12.766;2023-09-19T02:33:24;96998.19;;;17.53;100.00
14242;BME280;7205;50.864;12.766;2023-09-19T02:35:56;97006.41;;;17.51;100.00
14242;BME280;7205;50.864;12.766;2023-09-19T02:38:24;97002.13;;;17.50;100.00
14242;BME280;7205;50.864;12.766;2023-09-19T02:40:51;96996.44;;;17.47;100.00
14242;BME280;7205;50.864;12.766;2023-09-19T02:43:21;97008.75;;;17.48;100.00
14242;BME280;7205;50.864;12.766;2023-09-19T02:45:48;97020.47;;;17.47;100.00
14242;BME280;7205;50.864;12.766;2023-09-19T02:48:16;97026.88;;;17.46;100.00
14242;BME280;7205;50.864;12.766;2023-09-19T02:50:43;97034.25;;;17.44;100.00
14242;BME280;7205;50.864;12.766;2023-09-19T02:53:12;97034.25;;;17.44;100.00
14242;BME280;7205;50.864;12.766;2023-09-19T02:55:40;97023.00;;;17.42;100.00
14242;BME280;7205;50.864;12.766;2023-09-19T02:58:08;97034.50;;;17.42;100.00
14242;BME280;7205;50.864;12.766;2023-09-19T03:00:37;97035.75;;;17.40;100.00
14242;BME280;7205;50.864;12.766;2023-09-19T03:03:05;97040.53;;;17.38;100.00
14242;BME280;7205;50.864;12.766;2023-09-19T03:05:34;97044.22;;;17.37;100.00
14242;BME280;7205;50.864;12.766;2023-09-19T03:08:01;97044.69;;;17.34;100.00
14242;BME280;7205;50.864;12.766;2023-09-19T03:10:30;97042.25;;;17.32;100.00
14242;BME280;7205;50.864;12.766;2023-09-19T03:12:58;97042.50;;;17.31;100.00
14242;BME280;7205;50.864;12.766;2023-09-19T03:15:26;97044.00;;;17.27;100.00
14242;BME280;7205;50.864;12.766;2023-09-19T03:17:53;97052.59;;;17.29;100.00
14242;BME280;7205;50.864;12.766;2023-09-19T03:20:22;97053.06;;;17.26;100.00
14242;BME280;7205;50.864;12.766;2023-09-19T03:22:50;97052.47;;;17.24;100.00
14242;BME280;7205;50.864;12.766;2023-09-19T03:25:17;97043.06;;;17.21;100.00
14242;BME280;7205;50.864;12.766;2023-09-19T03:27:49;97047.00;;;17.19;100.00
14242;BME280;7205;50.864;12.766;2023-09-19T03:30:17;97042.16;;;17.16;100.00
14242;BME280;7205;50.864;12.766;2023-09-19T03:32:45;97051.41;;;17.13;100.00
14242;BME280;7205;50.864;12.766;2023-09-19T03:35:16;97047.94;;;17.13;100.00
14242;BME280;7205;50.864;12.766;2023-09-19T03:37:43;97045.72;;;17.10;100.00
14242;BME280;7205;50.864;12.766;2023-09-19T03:40:10;97054.19;;;17.07;100.00
14242;BME280;7205;50.864;12.766;2023-09-19T03:42:38;97050.94;;;17.05;100.00
14242;BME280;7205;50.864;12.766;2023-09-19T03:45:08;97061.03;;;17.03;100.00
14242;BME280;7205;50.864;12.766;2023-09-19T03:47:38;97052.09;;;16.97;100.00
14242;BME280;7205;50.864;12.766;2023-09-19T03:50:07;97049.44;;;16.97;100.00
14242;BME280;7205;50.864;12.766;2023-09-19T03:52:36;97049.66;;;16.96;100.00
14242;BME280;7205;50.864;12.766;2023-09-19T03:55:04;97046.63;;;16.92;100.00
14242;BME280;7205;50.864;12.766;2023-09-19T03:57:31;97047.09;;;16.89;100.00
14242;BME280;7205;50.864;12.766;2023-09-19T03:59:58;97046.75;;;16.86;100.00
14242;BME280;7205;50.864;12.766;2023-09-19T04:02:26;97050.66;;;16.83;100.00
14242;BME280;7205;50.864;12.766;2023-09-19T04:04:58;97038.38;;;16.82;100.00
14242;BME280;7205;50.864;12.766;2023-09-19T04:07:25;97045.56;;;16.82;100.00
14242;BME280;7205;50.864;12.766;2023-09-19T04:09:54;97058.91;;;16.82;100.00
14242;BME280;7205;50.864;12.766;2023-09-19T04:12:21;97057.28;;;16.81;100.00
14242;BME280;7205;50.864;12.766;2023-09-19T04:14:48;97059.13;;;16.80;100.00
14242;BME280;7205;50.864;12.766;2023-09-19T04:17:16;97059.13;;;16.80;100.00
14242;BME280;7205;50.864;12.766;2023-09-19T04:19:45;97053.78;;;16.80;100.00
14242;BME280;7205;50.864;12.766;2023-09-19T04:22:12;97063.41;;;16.81;100.00
14242;BME280;7205;50.864;12.766;2023-09-19T04:24:39;97059.72;;;16.82;100.00
14242;BME280;7205;50.864;12.766;2023-09-19T04:27:06;97059.72;;;16.82;100.00
14242;BME280;7205;50.864;12.766;2023-09-19T04:29:33;97074.66;;;16.83;100.00
14242;BME280;7205;50.864;12.766;2023-09-19T04:32:00;97073.06;;;16.82;100.00
14242;BME280;7205;50.864;12.766;2023-09-19T04:34:29;97074.91;;;16.82;100.00
14242;BME280;7205;50.864;12.766;2023-09-19T04:36:58;97077.56;;;16.82;100.00
14242;BME280;7205;50.864;12.766;2023-09-19T04:39:26;97083.13;;;16.80;100.00
14242;BME280;7205;50.864;12.766;2023-09-19T04:41:53;97081.50;;;16.79;100.00
14242;BME280;7205;50.864;12.766;2023-09-19T04:44:20;97091.34;;;16.79;100.00
14242;BME280;7205;50.864;12.766;2023-09-19T04:46:47;97093.19;;;16.78;100.00
14242;BME280;7205;50.864;12.766;2023-09-19T04:49:14;97092.19;;;16.79;100.00
14242;BME280;7205;50.864;12.766;2023-09-19T04:51:41;97095.22;;;16.83;100.00
14242;BME280;7205;50.864;12.766;2023-09-19T04:54:09;97093.34;;;16.83;100.00
14242;BME280;7205;50.864;12.766;2023-09-19T04:56:36;97092.31;;;16.84;100.00
14242;BME280;7205;50.864;12.766;2023-09-19T04:59:05;97092.31;;;16.84;100.00
14242;BME280;7205;50.864;12.766;2023-09-19T05:01:32;97107.63;;;16.89;100.00
14242;BME280;7205;50.864;12.766;2023-09-19T05:03:59;97107.38;;;16.90;100.00
14242;BME280;7205;50.864;12.766;2023-09-19T05:06:26;97110.41;;;16.94;100.00
14242;BME280;7205;50.864;12.766;2023-09-19T05:08:53;97106.69;;;16.95;100.00
14242;BME280;7205;50.864;12.766;2023-09-19T05:11:21;97103.81;;;16.96;100.00
14242;BME280;7205;50.864;12.766;2023-09-19T05:13:48;97100.94;;;16.98;100.00
14242;BME280;7205;50.864;12.766;2023-09-19T05:16:15;97118.31;;;17.00;100.00
14242;BME280;7205;50.864;12.766;2023-09-19T05:18:42;97111.94;;;17.01;100.00
14242;BME280;7205;50.864;12.766;2023-09-19T05:21:09;97104.75;;;17.02;100.00
14242;BME280;7205;50.864;12.766;2023-09-19T05:23:36;97104.75;;;17.02;100.00
14242;BME280;7205;50.864;12.766;2023-09-19T05:26:03;97104.75;;;17.02;100.00
14242;BME280;7205;50.864;12.766;2023-09-19T05:28:32;97117.41;;;17.06;100.00
14242;BME280;7205;50.864;12.766;2023-09-19T05:31:00;97117.97;;;17.08;100.00
14242;BME280;7205;50.864;12.766;2023-09-19T05:33:27;97112.41;;;17.10;100.00
14242;BME280;7205;50.864;12.766;2023-09-19T05:35:53;97119.41;;;17.11;100.00
14242;BME280;7205;50.864;12.766;2023-09-19T05:38:24;97118.94;;;17.14;100.00
14242;BME280;7205;50.864;12.766;2023-09-19T05:40:53;97123.22;;;17.15;100.00
14242;BME280;7205;50.864;12.766;2023-09-19T05:43:19;97127.75;;;17.14;100.00
14242;BME280;7205;50.864;12.766;2023-09-19T05:45:48;97133.66;;;17.16;100.00
14242;BME280;7205;50.864;12.766;2023-09-19T05:48:17;97136.13;;;17.18;100.00
14242;BME280;7205;50.864;12.766;2023-09-19T05:50:46;97139.13;;;17.21;100.00
14242;BME280;7205;50.864;12.766;2023-09-19T05:53:14;97139.47;;;17.25;100.00
14242;BME280;7205;50.864;12.766;2023-09-19T05:55:41;97136.94;;;17.30;100.00
14242;BME280;7205;50.864;12.766;2023-09-19T05:58:08;97147.50;;;17.36;100.00
14242;BME280;7205;50.864;12.766;2023-09-19T06:00:35;97150.44;;;17.46;100.00
14242;BME280;7205;50.864;12.766;2023-09-19T06:03:03;97152.81;;;17.55;100.00
14242;BME280;7205;50.864;12.766;2023-09-19T06:05:30;97154.44;;;17.67;100.00
14242;BME280;7205;50.864;12.766;2023-09-19T06:07:58;97150.38;;;17.76;100.00
14242;BME280;7205;50.864;12.766;2023-09-19T06:10:26;97151.09;;;17.83;100.00
14242;BME280;7205;50.864;12.766;2023-09-19T06:12:53;97151.31;;;17.93;100.00
14242;BME280;7205;50.864;12.766;2023-09-19T06:15:20;97154.44;;;18.02;100.00
14242;BME280;7205;50.864;12.766;2023-09-19T06:17:49;97155.94;;;18.09;100.00
14242;BME280;7205;50.864;12.766;2023-09-19T06:20:20;97157.66;;;18.15;100.00
14242;BME280;7205;50.864;12.766;2023-09-19T06:22:48;97165.78;;;18.20;100.00
14242;BME280;7205;50.864;12.766;2023-09-19T06:25:16;97169.38;;;18.26;100.00
14242;BME280;7205;50.864;12.766;2023-09-19T06:27:45;97176.50;;;18.32;99.93
14242;BME280;7205;50.864;12.766;2023-09-19T06:30:13;97173.69;;;18.38;99.44
14242;BME280;7205;50.864;12.766;2023-09-19T06:32:39;97177.28;;;18.44;98.72
14242;BME280;7205;50.864;12.766;2023-09-19T06:35:09;97178.78;;;18.51;98.42
14242;BME280;7205;50.864;12.766;2023-09-19T06:37:38;97184.84;;;18.58;97.62
14242;BME280;7205;50.864;12.766;2023-09-19T06:40:07;97179.94;;;18.67;97.01
14242;BME280;7205;50.864;12.766;2023-09-19T06:42:39;97178.47;;;18.76;96.23
14242;BME280;7205;50.864;12.766;2023-09-19T06:45:07;97181.34;;;18.86;95.19
14242;BME280;7205;50.864;12.766;2023-09-19T06:47:34;97186.56;;;18.93;94.40
14242;BME280;7205;50.864;12.766;2023-09-19T06:50:02;97179.22;;;19.00;94.04
14242;BME280;7205;50.864;12.766;2023-09-19T06:52:30;97189.03;;;19.11;93.45
14242;BME280;7205;50.864;12.766;2023-09-19T06:54:59;97193.53;;;19.22;92.70
14242;BME280;7205;50.864;12.766;2023-09-19T06:57:28;97197.25;;;19.32;92.01
14242;BME280;7205;50.864;12.766;2023-09-19T06:59:56;97204.56;;;19.37;90.40
14242;BME280;7205;50.864;12.766;2023-09-19T07:02:22;97205.13;;;19.39;89.67
14242;BME280;7205;50.864;12.766;2023-09-19T07:04:49;97202.47;;;19.39;88.54
14242;BME280;7205;50.864;12.766;2023-09-19T07:07:16;97202.69;;;19.37;88.01
14242;BME280;7205;50.864;12.766;2023-09-19T07:09:43;97205.38;;;19.37;88.12
14242;BME280;7205;50.864;12.766;2023-09-19T07:12:11;97211.03;;;19.41;88.37
14242;BME280;7205;50.864;12.766;2023-09-19T07:14:38;97210.00;;;19.42;88.19
14242;BME280;7205;50.864;12.766;2023-09-19T07:17:06;97215.94;;;19.44;87.77
14242;BME280;7205;50.864;12.766;2023-09-19T07:19:33;97217.22;;;19.41;87.27
14242;BME280;7205;50.864;12.766;2023-09-19T07:22:00;97214.19;;;19.38;86.92
14242;BME280;7205;50.864;12.766;2023-09-19T07:24:28;97208.28;;;19.36;86.92
14242;BME280;7205;50.864;12.766;2023-09-19T07:26:55;97217.38;;;19.35;86.85
14242;BME280;7205;50.864;12.766;2023-09-19T07:29:23;97222.38;;;19.31;86.66
14242;BME280;7205;50.864;12.766;2023-09-19T07:31:51;97218.91;;;19.31;87.24
14242;BME280;7205;50.864;12.766;2023-09-19T07:34:18;97230.19;;;19.33;87.25
14242;BME280;7205;50.864;12.766;2023-09-19T07:36:46;97224.34;;;19.36;87.13
14242;BME280;7205;50.864;12.766;2023-09-19T07:39:13;97227.09;;;19.41;87.46
14242;BME280;7205;50.864;12.766;2023-09-19T07:41:40;97227.53;;;19.49;87.86
14242;BME280;7205;50.864;12.766;2023-09-19T07:44:07;97236.22;;;19.56;86.69
14242;BME280;7205;50.864;12.766;2023-09-19T07:46:36;97234.56;;;19.67;86.05
14242;BME280;7205;50.864;12.766;2023-09-19T07:49:03;97241.13;;;19.76;84.72
14242;BME280;7205;50.864;12.766;2023-09-19T07:51:30;97229.78;;;19.85;82.75
14242;BME280;7205;50.864;12.766;2023-09-19T07:53:58;97236.34;;;19.94;80.38
14242;BME280;7205;50.864;12.766;2023-09-19T07:56:25;97242.59;;;20.00;78.43
14242;BME280;7205;50.864;12.766;2023-09-19T07:58:53;97234.13;;;20.08;77.45
14242;BME280;7205;50.864;12.766;2023-09-19T08:01:20;97238.31;;;20.16;77.21
14242;BME280;7205;50.864;12.766;2023-09-19T08:03:50;97244.56;;;20.21;76.88
14242;BME280;7205;50.864;12.766;2023-09-19T08:06:17;97251.88;;;20.26;76.88
14242;BME280;7205;50.864;12.766;2023-09-19T08:08:44;97249.53;;;20.29;76.07
14242;BME280;7205;50.864;12.766;2023-09-19T08:11:11;97250.31;;;20.30;75.68
14242;BME280;7205;50.864;12.766;2023-09-19T08:13:38;97263.25;;;20.33;75.85
14242;BME280;7205;50.864;12.766;2023-09-19T08:16:08;97259.25;;;20.35;74.93
14242;BME280;7205;50.864;12.766;2023-09-19T08:18:35;97264.38;;;20.37;74.76
14242;BME280;7205;50.864;12.766;2023-09-19T08:21:04;97270.56;;;20.37;74.59
14242;BME280;7205;50.864;12.766;2023-09-19T08:23:33;97268.91;;;20.36;74.48
14242;BME280;7205;50.864;12.766;2023-09-19T08:26:00;97270.63;;;20.42;73.96
14242;BME280;7205;50.864;12.766;2023-09-19T08:28:32;97273.13;;;20.49;71.97
14242;BME280;7205;50.864;12.766;2023-09-19T08:31:01;97266.63;;;20.61;71.04
14242;BME280;7205;50.864;12.766;2023-09-19T08:33:31;97273.56;;;20.79;69.84
14242;BME280;7205;50.864;12.766;2023-09-19T08:35:58;97272.41;;;20.91;67.38
14242;BME280;7205;50.864;12.766;2023-09-19T08:38:26;97277.16;;;21.06;65.95
14242;BME280;7205;50.864;12.766;2023-09-19T08:40:57;97274.59;;;21.16;65.56
14242;BME280;7205;50.864;12.766;2023-09-19T08:43:25;97274.97;;;21.25;64.68
14242;BME280;7205;50.864;12.766;2023-09-19T08:45:58;97277.16;;;21.28;63.87
14242;BME280;7205;50.864;12.766;2023-09-19T08:48:29;97280.91;;;21.27;62.45
14242;BME280;7205;50.864;12.766;2023-09-19T08:51:00;97274.34;;;21.17;60.69
14242;BME280;7205;50.864;12.766;2023-09-19T08:53:51;97274.22;;;21.07;58.68
14242;BME280;7205;50.864;12.766;2023-09-19T08:56:18;97300.34;;;20.95;57.71
14242;BME280;7205;50.864;12.766;2023-09-19T08:58:50;97291.13;;;20.86;57.37
14242;BME280;7205;50.864;12.766;2023-09-19T09:01:19;97280.78;;;20.78;57.39
14242;BME280;7205;50.864;12.766;2023-09-19T09:03:51;97277.06;;;20.79;57.82
14242;BME280;7205;50.864;12.766;2023-09-19T09:06:19;97279.50;;;20.81;56.75
14242;BME280;7205;50.864;12.766;2023-09-19T09:08:48;97283.78;;;20.82;56.16
14242;BME280;7205;50.864;12.766;2023-09-19T09:11:16;97289.16;;;20.82;55.97
14242;BME280;7205;50.864;12.766;2023-09-19T09:13:44;97294.28;;;20.83;55.54
14242;BME280;7205;50.864;12.766;2023-09-19T09:16:11;97292.16;;;20.85;55.28
14242;BME280;7205;50.864;12.766;2023-09-19T09:18:39;97299.47;;;20.90;55.31
14242;BME280;7205;50.864;12.766;2023-09-19T09:21:06;97294.41;;;20.93;55.60
14242;BME280;7205;50.864;12.766;2023-09-19T09:23:33;97294.50;;;20.98;56.04
14242;BME280;7205;50.864;12.766;2023-09-19T09:26:01;97291.47;;;21.11;55.52
14242;BME280;7205;50.864;12.766;2023-09-19T09:28:32;97291.47;;;21.33;55.89
14242;BME280;7205;50.864;12.766;2023-09-19T09:31:01;97294.91;;;21.55;54.00
14242;BME280;7205;50.864;12.766;2023-09-19T09:33:33;97292.63;;;21.69;52.46
14242;BME280;7205;50.864;12.766;2023-09-19T09:36:02;97290.56;;;21.76;52.02
14242;BME280;7205;50.864;12.766;2023-09-19T09:38:43;97294.66;;;21.78;50.98
14242;BME280;7205;50.864;12.766;2023-09-19T09:41:12;97299.00;;;21.84;50.37
14242;BME280;7205;50.864;12.766;2023-09-19T09:43:42;97313.25;;;21.85;50.04
14242;BME280;7205;50.864;12.766;2023-09-19T09:46:13;97303.34;;;21.90;49.69
14242;BME280;7205;50.864;12.766;2023-09-19T09:49:06;97294.53;;;21.95;48.61
14242;BME280;7205;50.864;12.766;2023-09-19T09:51:45;97298.31;;;21.99;47.49
14242;BME280;7205;50.864;12.766;2023-09-19T09:54:25;97306.38;;;21.99;47.34
14242;BME280;7205;50.864;12.766;2023-09-19T09:57:01;97298.06;;;22.00;47.04
14242;BME280;7205;50.864;12.766;2023-09-19T09:59:46;97294.88;;;22.03;48.10
14242;BME280;7205;50.864;12.766;2023-09-19T10:02:13;97297.69;;;22.18;47.83
14242;BME280;7205;50.864;12.766;2023-09-19T10:04:42;97306.66;;;22.29;46.74
14242;BME280;7205;50.864;12.766;2023-09-19T10:07:27;97299.94;;;22.31;45.74
14242;BME280;7205;50.864;12.766;2023-09-19T10:09:58;97304.03;;;22.39;45.31
14242;BME280;7205;50.864;12.766;2023-09-19T10:12:38;97303.00;;;22.45;44.52
14242;BME280;7205;50.864;12.766;2023-09-19T10:15:08;97310.38;;;22.55;45.12
14242;BME280;7205;50.864;12.766;2023-09-19T10:17:42;97312.56;;;22.63;44.69
14242;BME280;7205;50.864;12.766;2023-09-19T10:20:12;97303.22;;;22.70;44.56
14242;BME280;7205;50.864;12.766;2023-09-19T10:22:50;97298.16;;;22.79;43.74
14242;BME280;7205;50.864;12.766;2023-09-19T10:25:25;97299.00;;;22.89;43.34
14242;BME280;7205;50.864;12.766;2023-09-19T10:27:56;97307.66;;;22.96;43.20
14242;BME280;7205;50.864;12.766;2023-09-19T10:30:25;97308.50;;;23.02;42.73
14242;BME280;7205;50.864;12.766;2023-09-19T10:33:00;97305.00;;;23.01;42.57
14242;BME280;7205;50.864;12.766;2023-09-19T10:35:27;97312.03;;;23.02;42.76
14242;BME280;7205;50.864;12.766;2023-09-19T10:37:57;97310.66;;;23.00;41.96
14242;BME280;7205;50.864;12.766;2023-09-19T10:40:27;97330.03;;;22.97;41.28
14242;BME280;7205;50.864;12.766;2023-09-19T10:43:02;97313.03;;;22.91;41.85
14242;BME280;7205;50.864;12.766;2023-09-19T10:45:33;97303.84;;;22.87;41.69
14242;BME280;7205;50.864;12.766;2023-09-19T10:48:01;97315.13;;;22.84;42.10
14242;BME280;7205;50.864;12.766;2023-09-19T10:50:32;97318.34;;;22.81;42.39
14242;BME280;7205;50.864;12.766;2023-09-19T10:53:03;97315.66;;;22.81;42.30
14242;BME280;7205;50.864;12.766;2023-09-19T10:55:33;97311.63;;;22.79;41.87
14242;BME280;7205;50.864;12.766;2023-09-19T10:58:03;97311.59;;;22.74;42.24
14242;BME280;7205;50.864;12.766;2023-09-19T11:00:55;97313.69;;;22.67;42.55
14242;BME280;7205;50.864;12.766;2023-09-19T11:03:23;97305.63;;;22.67;42.48
14242;BME280;7205;50.864;12.766;2023-09-19T11:06:08;97313.09;;;22.60;42.42
14242;BME280;7205;50.864;12.766;2023-09-19T11:09:00;97317.06;;;22.52;44.88
14242;BME280;7205;50.864;12.766;2023-09-19T11:11:48;97316.19;;;22.42;46.09
14242;BME280;7205;50.864;12.766;2023-09-19T11:14:44;97312.03;;;22.29;46.86
14242;BME280;7205;50.864;12.766;2023-09-19T11:17:33;97317.94;;;22.26;47.78
14242;BME280;7205;50.864;12.766;2023-09-19T11:20:30;97322.25;;;22.27;48.56
14242;BME280;7205;50.864;12.766;2023-09-19T11:23:20;97321.19;;;22.28;47.93
14242;BME280;7205;50.864;12.766;2023-09-19T11:25:50;97315.53;;;22.29;47.84
14242;BME280;7205;50.864;12.766;2023-09-19T11:28:35;97315.28;;;22.31;47.97
14242;BME280;7205;50.864;12.766;2023-09-19T11:34:43;97319.88;;;22.35;47.29
14242;BME280;7205;50.864;12.766;2023-09-19T11:40:25;97307.09;;;22.53;46.72
14242;BME280;7205;50.864;12.766;2023-09-19T11:42:53;97313.63;;;22.57;46.41
14242;BME280;7205;50.864;12.766;2023-09-19T11:48:27;97315.56;;;22.66;45.86
14242;BME280;7205;50.864;12.766;2023-09-19T11:50:56;97304.78;;;22.66;45.56
14242;BME280;7205;50.864;12.766;2023-09-19T11:53:31;97301.03;;;22.67;46.04
14242;BME280;7205;50.864;12.766;2023-09-19T11:56:01;97309.91;;;22.68;45.18
14242;BME280;7205;50.864;12.766;2023-09-19T11:58:30;97298.84;;;22.64;45.30
14242;BME280;7205;50.864;12.766;2023-09-19T12:01:00;97299.13;;;22.63;45.56
14242;BME280;7205;50.864;12.766;2023-09-19T12:03:31;97293.19;;;22.66;45.61
14242;BME280;7205;50.864;12.766;2023-09-19T12:06:00;97302.66;;;22.68;44.96
14242;BME280;7205;50.864;12.766;2023-09-19T12:08:28;97301.88;;;22.73;45.04
14242;BME280;7205;50.864;12.766;2023-09-19T12:10:55;97294.09;;;22.76;43.61
14242;BME280;7205;50.864;12.766;2023-09-19T12:13:23;97302.16;;;22.76;41.50
14242;BME280;7205;50.864;12.766;2023-09-19T12:15:51;97302.16;;;22.76;41.08
14242;BME280;7205;50.864;12.766;2023-09-19T12:18:28;97301.09;;;22.72;40.48
14242;BME280;7205;50.864;12.766;2023-09-19T12:20:55;97304.25;;;22.69;40.03
14242;BME280;7205;50.864;12.766;2023-09-19T12:23:24;97307.19;;;22.63;40.56
14242;BME280;7205;50.864;12.766;2023-09-19T12:25:52;97299.63;;;22.60;40.63
14242;BME280;7205;50.864;12.766;2023-09-19T12:28:25;97291.25;;;22.56;40.93
14242;BME280;7205;50.864;12.766;2023-09-19T12:30:54;97290.72;;;22.54;41.06
14242;BME280;7205;50.864;12.766;2023-09-19T12:33:23;97298.22;;;22.52;40.68
14242;BME280;7205;50.864;12.766;2023-09-19T12:35:51;97289.56;;;22.45;40.48
14242;BME280;7205;50.864;12.766;2023-09-19T12:38:26;97287.13;;;22.44;40.68
14242;BME280;7205;50.864;12.766;2023-09-19T12:40:55;97289.84;;;22.49;41.07
14242;BME280;7205;50.864;12.766;2023-09-19T12:43:23;97280.50;;;22.56;41.03
14242;BME280;7205;50.864;12.766;2023-09-19T12:45:50;97287.28;;;22.64;40.98
14242;BME280;7205;50.864;12.766;2023-09-19T12:48:20;97288.38;;;22.68;40.58
14242;BME280;7205;50.864;12.766;2023-09-19T12:51:02;97273.56;;;22.65;40.33
14242;BME280;7205;50.864;12.766;2023-09-19T12:53:36;97287.59;;;22.67;40.63
14242;BME280;7205;50.864;12.766;2023-09-19T12:56:12;97281.66;;;22.65;40.77
14242;BME280;7205;50.864;12.766;2023-09-19T12:58:51;97278.69;;;22.67;41.12
14242;BME280;7205;50.864;12.766;2023-09-19T13:01:23;97286.53;;;22.73;40.84
14242;BME280;7205;50.864;12.766;2023-09-19T13:04:14;97284.38;;;22.70;40.37
14242;BME280;7205;50.864;12.766;2023-09-19T13:06:44;97280.03;;;22.69;40.48
14242;BME280;7205;50.864;12.766;2023-09-19T13:09:12;97284.06;;;22.67;40.13
14242;BME280;7205;50.864;12.766;2023-09-19T13:11:40;97284.34;;;22.65;39.92
14242;BME280;7205;50.864;12.766;2023-09-19T13:14:20;97280.53;;;22.61;38.93
14242;BME280;7205;50.864;12.766;2023-09-19T13:16:59;97279.72;;;22.61;38.64
14242;BME280;7205;50.864;12.766;2023-09-19T13:19:41;97267.63;;;22.63;39.34
14242;BME280;7205;50.864;12.766;2023-09-19T13:22:37;97276.81;;;22.67;38.81
14242;BME280;7205;50.864;12.766;2023-09-19T13:25:18;97280.03;;;22.69;38.96